Time;durP1;ratioP1;P1;durP2;ratioP2;P2;SDS_P1;SDS_P2;PMS_P1;PMS_P2;Temp;Humidity;BMP_temperature;BMP_pressure;BME280_temperature;BME280_humidity;BME280_pressure;Samples;Min_cycle;Max_cycle;Signal;HPM_P1;HPM_P2
2022/05/10 00:00:54;;;;;;;7.25;5.72;;;14.80;99.90;;;;;;5096713;28;20046;-76
2022/05/10 00:03:23;;;;;;;9.25;6.22;;;14.70;99.90;;;;;;5096693;28;20020;-76
2022/05/10 00:05:49;;;;;;;11.55;5.43;;;14.70;99.90;;;;;;5097144;28;20476;-76
2022/05/10 00:08:17;;;;;;;9.77;6.18;;;14.60;99.90;;;;;;5098239;28;20020;-77
2022/05/10 00:10:44;;;;;;;10.52;6.30;;;14.50;99.90;;;;;;5098400;28;20031;-78
2022/05/10 00:13:10;;;;;;;10.32;6.72;;;14.50;99.90;;;;;;5096663;28;20108;-78
2022/05/10 00:15:37;;;;;;;10.25;5.93;;;14.50;99.90;;;;;;5089459;28;20027;-78
2022/05/10 00:18:03;;;;;;;7.53;6.13;;;14.40;99.90;;;;;;5089967;28;20027;-78
2022/05/10 00:20:29;;;;;;;8.77;6.30;;;14.40;99.90;;;;;;5098052;28;20484;-78
2022/05/10 00:22:55;;;;;;;7.30;5.97;;;14.40;99.90;;;;;;5098014;28;20047;-78
2022/05/10 00:25:24;;;;;;;8.13;5.85;;;14.30;99.90;;;;;;5098024;28;20020;-78
2022/05/10 00:27:50;;;;;;;7.88;5.82;;;14.30;99.90;;;;;;5096887;28;20388;-78
2022/05/10 00:30:16;;;;;;;8.38;5.90;;;14.30;99.90;;;;;;5097953;28;20024;-78
2022/05/10 00:32:43;;;;;;;7.35;6.20;;;14.30;99.90;;;;;;5098028;28;20460;-78
2022/05/10 00:35:28;;;;;;;9.20;6.28;;;14.20;99.90;;;;;;5097685;28;20024;-78
2022/05/10 00:37:58;;;;;;;8.57;5.95;;;14.20;99.90;;;;;;5096207;28;20060;-78
2022/05/10 00:40:27;;;;;;;8.48;6.65;;;14.20;99.90;;;;;;5097743;28;20027;-78
2022/05/10 00:43:03;;;;;;;6.75;5.95;;;14.10;99.90;;;;;;5096136;28;20028;-78
2022/05/10 00:45:51;;;;;;;7.93;6.10;;;14.10;99.90;;;;;;5094186;28;20044;-78
2022/05/10 00:48:43;;;;;;;7.35;6.57;;;14.10;99.90;;;;;;5097488;28;20043;-78
2022/05/10 00:51:26;;;;;;;8.63;6.43;;;14.00;99.90;;;;;;5097363;28;20028;-78
2022/05/10 00:54:00;;;;;;;7.50;6.70;;;14.10;99.90;;;;;;5096029;28;20039;-78
2022/05/10 00:56:44;;;;;;;7.90;6.60;;;14.10;99.90;;;;;;5096034;28;20027;-78
2022/05/10 00:59:26;;;;;;;10.40;6.70;;;14.00;99.90;;;;;;5097225;28;20026;-78
2022/05/10 01:02:02;;;;;;;8.10;6.43;;;14.00;99.90;;;;;;5097160;28;20016;-78
2022/05/10 01:04:39;;;;;;;10.10;6.72;;;13.90;99.90;;;;;;5097326;28;20026;-78
2022/05/10 01:07:16;;;;;;;11.40;7.28;;;13.90;99.90;;;;;;5097288;28;20028;-78
2022/05/10 01:09:49;;;;;;;7.57;6.88;;;13.90;99.90;;;;;;5097386;28;20028;-78
2022/05/10 01:12:34;;;;;;;7.80;6.43;;;13.80;99.90;;;;;;5097281;28;20034;-78
2022/05/10 01:15:08;;;;;;;8.15;6.63;;;13.80;99.90;;;;;;5094858;28;20440;-78
2022/05/10 01:17:35;;;;;;;7.95;6.25;;;13.80;99.90;;;;;;5086868;28;20388;-78
2022/05/10 01:20:04;;;;;;;7.82;6.00;;;13.70;99.90;;;;;;5096807;28;20020;-78
2022/05/10 01:22:48;;;;;;;7.82;7.00;;;13.60;99.90;;;;;;5097390;28;20042;-78
2022/05/10 01:25:26;;;;;;;9.05;6.43;;;13.60;99.90;;;;;;5097071;28;20085;-78
2022/05/10 01:28:18;;;;;;;10.35;6.70;;;13.50;99.90;;;;;;5095742;28;20035;-78
2022/05/10 01:30:44;;;;;;;8.48;6.57;;;13.50;99.90;;;;;;5097126;28;20024;-78
2022/05/10 01:33:31;;;;;;;7.82;6.63;;;13.40;99.90;;;;;;5095396;28;20042;-78
2022/05/10 01:36:32;;;;;;;7.38;6.63;;;13.40;99.90;;;;;;5087287;28;20433;-78
2022/05/10 01:39:04;;;;;;;9.40;6.72;;;13.30;99.90;;;;;;5098034;28;20016;-78
2022/05/10 01:41:58;;;;;;;9.40;6.57;;;13.30;99.90;;;;;;5101144;28;20024;-78
2022/05/10 01:44:41;;;;;;;7.55;6.28;;;13.30;99.90;;;;;;5100786;28;20016;-77
2022/05/10 01:47:30;;;;;;;6.97;6.28;;;13.30;99.90;;;;;;5101061;28;20102;-77
2022/05/10 01:50:17;;;;;;;9.57;7.50;;;13.30;99.90;;;;;;5099382;28;20484;-77
2022/05/10 01:53:11;;;;;;;8.05;6.80;;;13.30;99.90;;;;;;5100811;28;20095;-77
2022/05/10 01:55:40;;;;;;;12.80;6.88;;;13.30;99.90;;;;;;5100776;28;20028;-77
2022/05/10 01:58:19;;;;;;;8.48;7.28;;;13.30;99.90;;;;;;5100709;28;20024;-77
2022/05/10 02:00:55;;;;;;;10.93;6.80;;;13.20;99.90;;;;;;5099179;28;20399;-77
2022/05/10 02:03:23;;;;;;;8.13;6.90;;;13.20;99.90;;;;;;5100498;28;20422;-77
2022/05/10 02:06:11;;;;;;;10.35;7.55;;;13.20;99.90;;;;;;5100442;28;20055;-77
2022/05/10 02:09:05;;;;;;;7.68;6.45;;;13.20;99.90;;;;;;5099155;28;20514;-77
2022/05/10 02:11:38;;;;;;;10.00;7.25;;;13.20;99.90;;;;;;5100528;28;20446;-77
2022/05/10 02:14:17;;;;;;;10.88;7.18;;;13.20;99.90;;;;;;5100408;28;20043;-77
2022/05/10 02:16:49;;;;;;;10.57;7.25;;;13.20;99.90;;;;;;5085197;28;20036;-77
2022/05/10 02:19:23;;;;;;;9.13;7.35;;;13.10;99.90;;;;;;5100319;28;20024;-78
2022/05/10 02:22:01;;;;;;;8.07;7.22;;;13.10;99.90;;;;;;5100149;28;20492;-77
2022/05/10 02:24:44;;;;;;;8.60;6.82;;;13.10;99.90;;;;;;5100366;28;20430;-78
2022/05/10 02:27:19;;;;;;;8.52;6.95;;;13.10;99.90;;;;;;5100407;28;20030;-78
2022/05/10 02:30:16;;;;;;;8.70;7.45;;;13.00;99.90;;;;;;5098702;28;20408;-78
2022/05/10 02:33:07;;;;;;;12.15;7.82;;;13.00;99.90;;;;;;5098503;28;20028;-78
2022/05/10 02:35:38;;;;;;;9.05;8.13;;;12.90;99.90;;;;;;5098779;28;20028;-78
2022/05/10 02:38:06;;;;;;;11.75;7.32;;;12.90;99.90;;;;;;5099796;28;20051;-78
2022/05/10 02:40:33;;;;;;;11.45;7.13;;;12.80;99.90;;;;;;5098676;28;20082;-78
2022/05/10 02:43:00;;;;;;;8.07;7.20;;;12.90;99.90;;;;;;5100020;28;20048;-78
2022/05/10 02:45:27;;;;;;;8.45;7.40;;;12.80;99.90;;;;;;5099746;28;20036;-77
2022/05/10 02:47:54;;;;;;;10.70;7.38;;;12.80;99.90;;;;;;5099561;28;20105;-78
2022/05/10 02:50:30;;;;;;;8.18;7.38;;;12.80;99.90;;;;;;5098773;28;20031;-78
2022/05/10 02:52:56;;;;;;;8.68;7.78;;;12.80;99.90;;;;;;5098415;28;20028;-78
2022/05/10 02:55:36;;;;;;;8.32;7.20;;;12.80;99.90;;;;;;5098545;28;20028;-78
2022/05/10 02:58:11;;;;;;;8.25;6.60;;;12.70;99.90;;;;;;5099685;28;20024;-78
2022/05/10 03:00:37;;;;;;;9.07;7.32;;;12.70;99.90;;;;;;5098100;28;20024;-78
2022/05/10 03:03:08;;;;;;;8.75;7.03;;;12.70;99.90;;;;;;5099405;28;20052;-77
2022/05/10 03:05:34;;;;;;;9.18;8.27;;;12.70;99.90;;;;;;5099441;28;20023;-78
2022/05/10 03:08:00;;;;;;;10.30;7.95;;;12.60;99.90;;;;;;5098184;28;20028;-77
2022/05/10 03:10:26;;;;;;;8.25;7.45;;;12.60;99.90;;;;;;5099306;28;20157;-78
2022/05/10 03:12:51;;;;;;;10.30;7.65;;;12.50;99.90;;;;;;5099365;28;20077;-78
2022/05/10 03:15:17;;;;;;;8.77;7.88;;;12.50;99.90;;;;;;5094550;28;20039;-78
2022/05/10 03:17:43;;;;;;;9.18;8.27;;;12.50;99.90;;;;;;5090156;28;20055;-78
2022/05/10 03:20:09;;;;;;;8.75;7.78;;;12.50;99.90;;;;;;5097924;28;20050;-78
2022/05/10 03:22:35;;;;;;;9.27;8.13;;;12.50;99.90;;;;;;5099221;28;20476;-78
2022/05/10 03:25:01;;;;;;;11.27;8.32;;;12.40;99.90;;;;;;5098981;28;20093;-78
2022/05/10 03:27:27;;;;;;;8.73;7.75;;;12.40;99.90;;;;;;5099146;28;20024;-77
2022/05/10 03:29:53;;;;;;;12.13;8.13;;;12.40;99.90;;;;;;5097425;28;20032;-78
2022/05/10 03:32:19;;;;;;;9.05;7.55;;;12.40;99.90;;;;;;5099020;28;20024;-78
2022/05/10 03:34:58;;;;;;;9.10;7.97;;;12.40;99.90;;;;;;5089419;28;20395;-78
2022/05/10 03:37:26;;;;;;;10.60;9.20;;;12.40;99.90;;;;;;5098823;28;20384;-78
2022/05/10 03:39:52;;;;;;;10.00;9.00;;;12.30;99.90;;;;;;5098919;28;20039;-78
2022/05/10 03:42:19;;;;;;;12.30;8.57;;;12.30;99.90;;;;;;5098793;28;20020;-75
2022/05/10 03:44:52;;;;;;;11.88;8.95;;;12.30;99.90;;;;;;5098572;28;20020;-75
2022/05/10 03:47:19;;;;;;;12.93;8.85;;;12.30;99.90;;;;;;5097497;28;20488;-75
2022/05/10 03:49:46;;;;;;;10.27;8.27;;;12.30;99.90;;;;;;5096984;28;20020;-75
2022/05/10 03:52:13;;;;;;;13.02;8.82;;;12.30;99.90;;;;;;5098420;28;20032;-75
2022/05/10 03:54:40;;;;;;;12.43;8.23;;;12.30;99.90;;;;;;5097548;28;20055;-77
2022/05/10 03:57:06;;;;;;;15.32;8.70;;;12.20;99.90;;;;;;5098222;28;20067;-77
2022/05/10 03:59:32;;;;;;;9.40;8.30;;;12.20;99.90;;;;;;5098617;28;20023;-76
2022/05/10 04:01:58;;;;;;;10.10;9.13;;;12.20;99.90;;;;;;5098056;28;20028;-75
2022/05/10 04:04:24;;;;;;;9.32;8.05;;;12.20;99.90;;;;;;5098193;28;20051;-75
2022/05/10 04:06:50;;;;;;;10.70;9.18;;;12.10;99.90;;;;;;5098246;28;20032;-75
2022/05/10 04:09:16;;;;;;;11.10;8.60;;;12.10;99.90;;;;;;5096985;28;20024;-75
2022/05/10 04:11:45;;;;;;;11.68;8.55;;;12.10;99.90;;;;;;5096852;28;20036;-75
2022/05/10 04:14:11;;;;;;;11.00;8.05;;;12.10;99.90;;;;;;5098014;28;20070;-75
2022/05/10 04:16:38;;;;;;;9.98;8.93;;;12.00;99.90;;;;;;5084243;28;20028;-75
2022/05/10 04:19:04;;;;;;;11.68;9.55;;;12.00;99.90;;;;;;5097891;28;20839;-75
2022/05/10 04:21:29;;;;;;;13.68;9.13;;;12.00;99.90;;;;;;5113659;28;20024;-75
2022/05/10 04:23:55;;;;;;;9.98;8.98;;;11.90;99.90;;;;;;5098266;28;20017;-75
2022/05/10 04:26:21;;;;;;;12.57;8.98;;;12.00;99.90;;;;;;5096525;28;20023;-75
2022/05/10 04:28:47;;;;;;;9.57;8.60;;;11.90;99.90;;;;;;5098099;28;20441;-76
2022/05/10 04:31:13;;;;;;;16.67;10.07;;;11.90;99.90;;;;;;5097994;28;20464;-76
2022/05/10 04:33:40;;;;;;;9.85;8.85;;;11.90;99.90;;;;;;5096345;28;20095;-75
2022/05/10 04:36:06;;;;;;;9.60;8.70;;;11.90;99.90;;;;;;5097628;28;20046;-75
2022/05/10 04:38:32;;;;;;;12.90;8.93;;;11.90;99.90;;;;;;5096828;28;20099;-75
2022/05/10 04:43:43;;;;;;;9.48;8.57;;;11.80;99.90;;;;;;5097852;28;20023;-75
2022/05/10 04:46:09;;;;;;;11.15;9.13;;;11.80;99.90;;;;;;5095991;28;20052;-75
2022/05/10 04:48:35;;;;;;;10.65;9.65;;;11.80;99.90;;;;;;5097322;28;20016;-75
2022/05/10 04:51:03;;;;;;;11.70;10.50;;;11.80;99.90;;;;;;5096346;28;20541;-75
2022/05/10 04:53:29;;;;;;;10.52;9.45;;;11.80;99.90;;;;;;5097551;28;20044;-75
2022/05/10 04:55:55;;;;;;;12.07;9.80;;;11.80;99.90;;;;;;5096233;28;20043;-75
2022/05/10 04:58:20;;;;;;;13.85;10.43;;;11.80;99.90;;;;;;5096139;28;20484;-75
2022/05/10 05:00:46;;;;;;;11.07;9.70;;;11.80;99.90;;;;;;5095783;28;20021;-75
2022/05/10 05:03:12;;;;;;;10.55;9.55;;;11.90;99.90;;;;;;5097307;28;20020;-75
2022/05/10 05:05:38;;;;;;;10.02;9.02;;;12.00;99.90;;;;;;5097218;28;20031;-76
2022/05/10 05:08:04;;;;;;;12.15;8.98;;;12.10;99.90;;;;;;5097407;28;20110;-76
2022/05/10 05:10:30;;;;;;;10.52;9.45;;;12.10;99.90;;;;;;5097216;28;20035;-76
2022/05/10 05:12:56;;;;;;;12.85;10.00;;;12.20;99.90;;;;;;5096791;28;20024;-76
2022/05/10 05:15:21;;;;;;;10.82;9.77;;;12.20;99.90;;;;;;5091903;28;20086;-77
2022/05/10 05:17:47;;;;;;;11.43;10.23;;;12.20;99.90;;;;;;5087229;28;20024;-77
2022/05/10 05:20:13;;;;;;;12.93;10.85;;;12.30;99.90;;;;;;5097088;28;20102;-76
2022/05/10 05:22:39;;;;;;;16.30;10.73;;;12.40;99.90;;;;;;5097353;28;20498;-76
2022/05/10 05:25:06;;;;;;;14.23;11.95;;;12.50;99.90;;;;;;5097023;28;20021;-76
2022/05/10 05:27:32;;;;;;;14.73;10.52;;;12.60;99.90;;;;;;5097187;28;20020;-76
2022/05/10 05:29:58;;;;;;;13.18;11.60;;;12.70;99.90;;;;;;5095550;28;20105;-76
2022/05/10 05:32:30;;;;;;;11.98;10.70;;;12.90;99.90;;;;;;5097201;28;20028;-76
2022/05/10 05:34:56;;;;;;;16.00;11.30;;;13.10;99.90;;;;;;5088859;28;20024;-76
2022/05/10 05:37:34;;;;;;;14.73;10.68;;;13.20;99.90;;;;;;5096997;28;20024;-76
2022/05/10 05:40:03;;;;;;;11.73;10.52;;;13.30;99.90;;;;;;5097117;28;20020;-77
2022/05/10 05:42:29;;;;;;;11.95;10.40;;;13.50;99.90;;;;;;5096903;28;20043;-76
2022/05/10 05:44:55;;;;;;;16.02;10.88;;;13.60;99.90;;;;;;5097155;28;20101;-76
2022/05/10 05:47:21;;;;;;;12.75;11.07;;;13.70;99.90;;;;;;5080988;28;20032;-76
2022/05/10 05:49:47;;;;;;;17.02;10.48;;;13.80;99.90;;;;;;5077619;28;20025;-76
2022/05/10 05:52:17;;;;;;;13.32;10.25;;;13.90;99.90;;;;;;5091346;28;20020;-79
2022/05/10 05:54:44;;;;;;;12.13;10.10;;;14.00;99.90;;;;;;5097078;28;20055;-79
2022/05/10 05:57:10;;;;;;;14.00;11.10;;;14.10;99.90;;;;;;5096635;28;20341;-79
2022/05/10 05:59:36;;;;;;;18.88;10.35;;;14.20;99.90;;;;;;5096934;28;20020;-79
2022/05/10 06:02:02;;;;;;;13.18;10.60;;;14.20;99.90;;;;;;5095309;28;20498;-79
2022/05/10 06:04:28;;;;;;;11.73;10.38;;;14.30;99.90;;;;;;5085185;28;20020;-79
2022/05/10 06:06:54;;;;;;;17.45;10.75;;;14.40;99.90;;;;;;5091603;28;20024;-78
2022/05/10 06:09:22;;;;;;;13.80;10.75;;;14.50;99.90;;;;;;5077613;28;20395;-79
2022/05/10 06:11:51;;;;;;;11.25;10.10;;;14.60;99.90;;;;;;5092119;28;20498;-78
2022/05/10 06:14:17;;;;;;;11.77;9.07;;;14.70;99.90;;;;;;5083471;28;20499;-79
2022/05/10 06:16:43;;;;;;;11.30;9.48;;;14.80;99.90;;;;;;5074686;28;20028;-79
2022/05/10 06:19:14;;;;;;;14.00;10.00;;;14.90;99.90;;;;;;5075532;28;20081;-78
2022/05/10 06:21:41;;;;;;;13.95;9.88;;;15.00;99.90;;;;;;5079448;28;20016;-78
2022/05/10 06:24:08;;;;;;;12.93;10.48;;;15.10;99.90;;;;;;5075476;28;20039;-80
2022/05/10 06:26:34;;;;;;;11.70;10.48;;;15.30;99.90;;;;;;5082228;28;20161;-79
2022/05/10 06:29:00;;;;;;;11.40;9.95;;;15.30;99.90;;;;;;5081749;28;20024;-80
2022/05/10 06:31:26;;;;;;;11.10;9.75;;;15.40;99.90;;;;;;5078760;28;20023;-79
2022/05/10 06:33:52;;;;;;;13.38;9.18;;;15.40;99.90;;;;;;5078885;28;20024;-79
2022/05/10 06:36:18;;;;;;;11.02;9.38;;;15.50;99.90;;;;;;5082679;28;20012;-79
2022/05/10 06:38:44;;;;;;;11.60;8.85;;;15.60;99.90;;;;;;5080238;28;20104;-79
2022/05/10 06:41:10;;;;;;;12.23;9.10;;;15.80;99.90;;;;;;5077475;28;20095;-79
2022/05/10 06:43:36;;;;;;;11.52;9.00;;;15.90;99.90;;;;;;5079884;28;20074;-78
2022/05/10 06:46:12;;;;;;;10.77;8.90;;;16.00;99.90;;;;;;5081239;28;20037;-79
2022/05/10 06:48:39;;;;;;;9.57;7.95;;;16.20;99.90;;;;;;5080695;28;20044;-79
2022/05/10 06:51:07;;;;;;;10.07;8.63;;;16.30;99.90;;;;;;5083961;28;20065;-79
2022/05/10 06:53:33;;;;;;;11.15;9.00;;;16.40;99.90;;;;;;5092277;28;20020;-81
2022/05/10 06:55:59;;;;;;;12.48;9.25;;;16.50;99.90;;;;;;5081404;28;20050;-80
2022/05/10 06:58:25;;;;;;;13.77;9.20;;;16.70;99.90;;;;;;5079579;28;20028;-80
2022/05/10 07:00:51;;;;;;;10.77;8.00;;;16.80;99.90;;;;;;5085888;28;20016;-81
2022/05/10 07:03:26;;;;;;;8.18;7.38;;;16.90;99.90;;;;;;5081054;28;20457;-81
2022/05/10 07:05:52;;;;;;;12.68;7.43;;;17.10;99.90;;;;;;5079233;28;20021;-81
2022/05/10 07:08:17;;;;;;;11.70;7.13;;;17.20;99.90;;;;;;5080946;28;20099;-81
2022/05/10 07:10:44;;;;;;;9.07;7.68;;;17.30;99.90;;;;;;5079040;28;20029;-82
2022/05/10 07:13:17;;;;;;;10.48;7.15;;;17.50;99.90;;;;;;5070034;28;20393;-82
2022/05/10 07:15:44;;;;;;;7.43;6.70;;;17.60;99.90;;;;;;5061776;28;20134;-80
2022/05/10 07:18:11;;;;;;;7.53;6.78;;;17.60;99.90;;;;;;5079475;28;20044;-81
2022/05/10 07:20:37;;;;;;;8.88;6.72;;;17.80;99.90;;;;;;5087710;28;20500;-82
2022/05/10 07:23:03;;;;;;;8.52;7.43;;;17.90;99.90;;;;;;5098907;28;20020;-81
2022/05/10 07:25:29;;;;;;;7.93;6.85;;;18.10;99.90;;;;;;5080992;28;20496;-81
2022/05/10 07:27:56;;;;;;;8.10;5.80;;;18.20;99.90;;;;;;5071777;28;20044;-82
2022/05/10 07:30:24;;;;;;;9.90;6.65;;;18.30;99.90;;;;;;5075234;28;20405;-81
2022/05/10 07:32:50;;;;;;;8.13;6.13;;;18.40;99.90;;;;;;5096995;28;20024;-81
2022/05/10 07:36:23;;;;;;;12.30;6.25;;;18.50;99.90;;;;;;5098730;28;20020;-82
2022/05/10 07:38:04;;;;;;;7.38;5.57;;;18.60;99.90;;;;;;5098203;28;20042;-82
2022/05/10 07:40:30;;;;;;;7.25;5.80;;;18.70;99.90;;;;;;5098762;28;20052;-81
2022/05/10 07:42:56;;;;;;;10.45;5.95;;;18.80;99.90;;;;;;5098541;28;20032;-82
2022/05/10 07:45:22;;;;;;;9.10;5.30;;;18.90;99.90;;;;;;5088818;28;20048;-81
2022/05/10 07:47:48;;;;;;;7.85;5.25;;;19.00;99.90;;;;;;5098084;28;20016;-82
2022/05/10 07:50:14;;;;;;;8.27;5.78;;;19.10;99.90;;;;;;5098366;28;20073;-81
2022/05/10 07:52:40;;;;;;;5.65;5.15;;;19.30;99.90;;;;;;5097660;28;20039;-81
2022/05/10 07:55:08;;;;;;;5.88;4.47;;;19.40;99.90;;;;;;5089760;28;20031;-82
2022/05/10 07:57:34;;;;;;;7.03;5.28;;;19.50;99.90;;;;;;5081026;28;20511;-82
2022/05/10 08:00:00;;;;;;;8.80;5.07;;;19.60;99.90;;;;;;5077166;28;20032;-81
2022/05/10 08:02:26;;;;;;;7.28;4.70;;;19.80;99.90;;;;;;5083842;28;20020;-79
2022/05/10 08:04:52;;;;;;;6.07;5.47;;;19.90;99.90;;;;;;5096602;28;20369;-79
2022/05/10 08:07:18;;;;;;;8.07;5.30;;;20.10;99.90;;;;;;5098297;28;20426;-79
2022/05/10 08:09:43;;;;;;;7.03;4.32;;;20.20;99.90;;;;;;5096779;28;20118;-79
2022/05/10 08:12:09;;;;;;;7.43;4.82;;;20.30;99.90;;;;;;5096928;28;20050;-80
2022/05/10 08:14:35;;;;;;;7.65;4.63;;;20.30;99.90;;;;;;5096581;28;20463;-79
2022/05/10 08:17:01;;;;;;;9.27;5.13;;;20.30;99.90;;;;;;5083040;28;20125;-79
2022/05/10 08:19:27;;;;;;;7.80;4.03;;;20.50;99.90;;;;;;5097864;28;20055;-79
2022/05/10 08:21:56;;;;;;;8.63;4.63;;;20.70;99.90;;;;;;5077392;28;20506;-79
2022/05/10 08:24:23;;;;;;;6.75;4.35;;;20.80;99.90;;;;;;5090774;28;20139;-79
2022/05/10 08:26:48;;;;;;;5.13;4.45;;;20.90;99.90;;;;;;5087432;28;20024;-79
2022/05/10 08:29:14;;;;;;;8.52;4.20;;;21.00;99.90;;;;;;5077069;28;20036;-78
2022/05/10 08:31:40;;;;;;;5.50;4.43;;;21.10;99.90;;;;;;5097526;28;20024;-75
2022/05/10 08:34:06;;;;;;;7.68;4.28;;;21.20;99.90;;;;;;5096273;28;20107;-75
2022/05/10 08:36:33;;;;;;;5.43;4.55;;;21.30;99.90;;;;;;5097745;28;20108;-77
2022/05/10 08:38:59;;;;;;;6.68;4.00;;;21.40;99.90;;;;;;5098003;28;20073;-77
2022/05/10 08:41:32;;;;;;;5.90;4.03;;;21.50;99.90;;;;;;5097872;28;20111;-80
2022/05/10 08:44:17;;;;;;;5.20;3.88;;;21.60;99.90;;;;;;5097537;28;20031;-79
2022/05/10 08:46:47;;;;;;;5.32;3.58;;;21.80;99.90;;;;;;5095616;28;20047;-77
2022/05/10 08:49:23;;;;;;;5.65;3.65;;;21.80;99.90;;;;;;5095064;28;20034;-76
2022/05/10 08:51:52;;;;;;;7.22;4.10;;;21.90;99.90;;;;;;5097545;28;20030;-77
2022/05/10 08:54:18;;;;;;;12.77;3.63;;;22.00;99.90;;;;;;5094017;28;20043;-79
2022/05/10 08:56:49;;;;;;;9.90;4.22;;;22.10;99.90;;;;;;5087445;28;20107;-80
2022/05/10 08:59:37;;;;;;;6.80;3.63;;;22.20;99.90;;;;;;5088248;28;20027;-79
2022/05/10 09:02:12;;;;;;;6.15;3.78;;;22.20;99.90;;;;;;5083843;28;20059;-80
2022/05/10 09:04:50;;;;;;;8.07;4.25;;;22.20;99.90;;;;;;5095948;28;20024;-81
2022/05/10 09:07:25;;;;;;;7.85;4.55;;;22.20;99.90;;;;;;5084406;28;20039;-79
2022/05/10 09:10:16;;;;;;;7.82;3.80;;;22.30;99.90;;;;;;5097521;28;20388;-78
2022/05/10 09:13:03;;;;;;;7.35;3.35;;;22.30;99.90;;;;;;5096025;28;20504;-79
2022/05/10 09:15:36;;;;;;;7.47;3.53;;;22.40;99.90;;;;;;5089596;28;20078;-79
2022/05/10 09:18:29;;;;;;;8.43;3.65;;;22.60;99.90;;;;;;5089265;28;20050;-80
2022/05/10 09:21:13;;;;;;;6.78;3.67;;;22.70;99.90;;;;;;5096896;28;20107;-78
2022/05/10 09:23:41;;;;;;;7.05;4.20;;;22.70;99.90;;;;;;5097198;28;20027;-80
2022/05/10 09:26:11;;;;;;;7.90;3.72;;;22.70;99.90;;;;;;5095789;28;20035;-79
2022/05/10 09:28:50;;;;;;;7.60;3.60;;;22.70;99.90;;;;;;5097302;28;20115;-77
2022/05/10 09:37:13;;;;;;;5.18;3.50;;;22.70;99.90;;;;;;5084929;28;20226;-80
2022/05/10 09:40:10;;;;;;;7.40;4.18;;;22.70;99.90;;;;;;5077702;28;20381;-80
2022/05/10 09:42:43;;;;;;;9.50;3.63;;;22.80;99.90;;;;;;5023062;28;20067;-81
2022/05/10 09:45:21;;;;;;;6.95;3.50;;;22.90;99.90;;;;;;5077243;28;20045;-79
2022/05/10 09:48:07;;;;;;;5.82;3.90;;;23.00;99.90;;;;;;5079967;28;20027;-80
2022/05/10 09:50:42;;;;;;;4.93;3.25;;;23.00;99.90;;;;;;5078814;28;20029;-78
2022/05/10 09:53:31;;;;;;;18.23;3.80;;;23.20;99.90;;;;;;5095269;28;20024;-79
2022/05/10 09:56:11;;;;;;;13.57;3.42;;;23.20;99.90;;;;;;5088528;28;20032;-79
2022/05/10 09:58:52;;;;;;;11.75;4.50;;;23.40;99.90;;;;;;5090883;28;20028;-79
2022/05/10 10:01:46;;;;;;;9.93;3.30;;;23.60;99.90;;;;;;5099193;28;20027;-83
2022/05/10 10:04:22;;;;;;;6.82;3.85;;;23.70;99.90;;;;;;5100547;28;20020;-82
2022/05/10 10:07:04;;;;;;;6.88;3.28;;;23.70;99.90;;;;;;5100525;28;20499;-76
2022/05/10 10:09:33;;;;;;;6.40;3.13;;;23.80;99.90;;;;;;5100254;28;20017;-77
2022/05/10 10:12:00;;;;;;;7.50;3.30;;;23.90;99.90;;;;;;5100088;28;20024;-77
2022/05/10 10:14:53;;;;;;;4.60;3.05;;;23.90;99.90;;;;;;5090830;28;20017;-80
2022/05/10 10:17:28;;;;;;;7.85;3.85;;;23.90;99.90;;;;;;5073022;28;20160;-78
2022/05/10 10:20:22;;;;;;;19.80;3.88;;;24.00;99.90;;;;;;5100142;28;20089;-78
2022/05/10 10:22:52;;;;;;;5.55;2.83;;;24.10;99.90;;;;;;5100381;28;20016;-79
2022/05/10 10:25:26;;;;;;;11.98;3.85;;;24.20;99.90;;;;;;5100384;28;20047;-80
2022/05/10 10:28:05;;;;;;;3.97;3.05;;;24.20;99.90;;;;;;5100016;28;20525;-77
2022/05/10 10:30:49;;;;;;;6.97;2.78;;;24.30;99.90;;;;;;5098793;28;20020;-78
2022/05/10 10:33:20;;;;;;;7.00;3.42;;;24.40;99.90;;;;;;5093971;28;20063;-77
2022/05/10 10:35:52;;;;;;;10.18;3.67;;;24.40;99.90;;;;;;5098700;28;20032;-78
2022/05/10 10:38:28;;;;;;;9.63;3.50;;;24.50;99.90;;;;;;5099887;28;20556;-79
2022/05/10 10:41:03;;;;;;;6.85;3.63;;;24.60;99.90;;;;;;5100124;28;20016;-78
2022/05/10 10:43:54;;;;;;;5.40;3.08;;;24.70;99.90;;;;;;5098633;28;20400;-79
2022/05/10 10:46:26;;;;;;;;;;;24.80;99.90;;;;;;5073540;28;20051;-77
2022/05/10 10:49:17;;;;;;;4.80;3.42;;;24.80;99.90;;;;;;5099486;28;19904;-78
2022/05/10 10:51:44;;;;;;;7.70;3.03;;;24.90;99.90;;;;;;5079410;28;20041;-77
2022/05/10 10:54:18;;;;;;;6.10;2.80;;;24.90;99.90;;;;;;5085446;28;20107;-80
2022/05/10 10:56:53;;;;;;;4.15;2.78;;;25.00;99.90;;;;;;5099684;28;20119;-78
2022/05/10 10:59:48;;;;;;;5.55;2.70;;;25.10;99.90;;;;;;5098202;28;20016;-79
2022/05/10 11:02:32;;;;;;;4.18;2.85;;;25.20;98.50;;;;;;5099190;28;20569;-78
2022/05/10 11:05:17;;;;;;;7.13;3.10;;;25.30;99.50;;;;;;5099496;28;20051;-80
2022/05/10 11:08:09;;;;;;;7.43;2.85;;;25.30;99.00;;;;;;5099457;28;20111;-80
2022/05/10 11:10:49;;;;;;;6.60;3.13;;;25.40;99.60;;;;;;5098388;28;20052;-77
2022/05/10 11:13:49;;;;;;;6.78;3.20;;;25.50;98.70;;;;;;5091025;28;20036;-79
2022/05/10 11:17:01;;;;;;;7.97;3.17;;;25.50;98.60;;;;;;5078464;28;20387;-77
2022/05/10 11:19:52;;;;;;;6.38;3.03;;;25.70;99.00;;;;;;5038398;28;20440;-78
2022/05/10 11:22:35;;;;;;;3.75;2.75;;;25.70;97.50;;;;;;5077994;28;20017;-80
2022/05/10 11:25:16;;;;;;;6.35;2.80;;;25.70;98.80;;;;;;5078697;28;20035;-77
2022/05/10 11:28:07;;;;;;;3.33;2.47;;;25.90;97.70;;;;;;5077784;28;20028;-79
2022/05/10 11:30:53;;;;;;;4.68;3.10;;;26.00;97.50;;;;;;5078900;28;20031;-80
2022/05/10 11:33:42;;;;;;;4.82;2.42;;;26.00;95.60;;;;;;5082516;28;20024;-79
2022/05/10 11:36:39;;;;;;;6.72;2.90;;;26.00;96.90;;;;;;5079153;28;20157;-80
2022/05/10 11:39:23;;;;;;;5.80;2.90;;;26.00;97.10;;;;;;5079548;28;20032;-78
2022/05/10 11:42:24;;;;;;;4.38;2.60;;;26.00;95.90;;;;;;5078170;28;20384;-79
2022/05/10 11:45:41;;;;;;;7.60;2.30;;;26.00;96.50;;;;;;5077227;28;20016;-80
2022/05/10 11:48:09;;;;;;;4.78;2.75;;;26.00;95.70;;;;;;5018634;28;20055;-78
2022/05/10 11:54:29;;;;;;;7.45;2.65;;;26.30;95.70;;;;;;5079743;28;20032;-78
2022/05/10 11:56:56;;;;;;;10.93;2.90;;;26.30;94.40;;;;;;5078206;28;20032;-78
2022/05/10 11:59:32;;;;;;;5.97;2.47;;;26.40;95.40;;;;;;5074474;28;20028;-78
2022/05/10 12:02:00;;;;;;;3.17;2.47;;;26.50;95.50;;;;;;5079582;28;20378;-79
2022/05/10 12:04:28;;;;;;;3.85;2.28;;;26.60;93.70;;;;;;5078169;28;20069;-78
2022/05/10 12:06:55;;;;;;;3.97;2.40;;;26.70;92.60;;;;;;5076642;28;20028;-77
2022/05/10 12:10:07;;;;;;;3.13;2.28;;;26.60;92.20;;;;;;5076839;28;20036;-79
2022/05/10 12:12:32;;;;;;;5.72;2.88;;;26.70;91.10;;;;;;5056563;28;20032;-77
2022/05/10 12:24:01;;;;;;;4.45;1.98;;;27.10;91.40;;;;;;5077216;28;20023;-79
2022/05/10 12:26:53;;;;;;;4.05;1.83;;;27.20;86.80;;;;;;5071229;28;20562;-79
2022/05/10 12:29:37;;;;;;;6.13;1.80;;;27.20;85.40;;;;;;5074226;28;20020;-78
2022/05/10 12:32:09;;;;;;;3.03;1.80;;;27.10;88.60;;;;;;5075233;28;20020;-79
2022/05/10 12:34:40;;;;;;;3.92;1.73;;;27.30;82.60;;;;;;5077848;28;20046;-77
2022/05/10 12:37:30;;;;;;;2.88;1.70;;;27.40;84.70;;;;;;5074907;28;20032;-78
2022/05/10 12:40:08;;;;;;;4.85;2.38;;;27.60;85.90;;;;;;5081971;28;20020;-78
2022/05/10 12:43:11;;;;;;;3.88;2.05;;;27.70;84.00;;;;;;5097501;28;20658;-77
2022/05/10 12:46:17;;;;;;;3.90;2.15;;;27.70;80.50;;;;;;5091514;28;20104;-78
2022/05/10 12:49:22;;;;;;;5.35;2.10;;;27.70;81.00;;;;;;5097573;28;20031;-77
2022/05/10 12:52:26;;;;;;;6.88;2.05;;;27.70;84.60;;;;;;5054778;28;20469;-79
2022/05/10 12:55:02;;;;;;;5.40;2.00;;;27.80;79.20;;;;;;5083426;28;20028;-77
2022/05/10 12:57:37;;;;;;;6.13;2.10;;;28.10;76.30;;;;;;5097401;28;20067;-78
2022/05/10 13:00:12;;;;;;;3.25;1.75;;;28.10;76.90;;;;;;5096970;28;20452;-79
2022/05/10 13:02:56;;;;;;;2.92;1.80;;;28.10;76.80;;;;;;5095910;28;20062;-77
2022/05/10 13:05:40;;;;;;;2.22;1.45;;;28.30;78.10;;;;;;5095931;28;20559;-78
2022/05/10 13:08:22;;;;;;;4.30;1.90;;;28.30;74.90;;;;;;5097211;28;20070;-77
2022/05/10 13:10:49;;;;;;;4.78;1.95;;;28.40;75.80;;;;;;5097423;28;20027;-78
2022/05/10 13:13:26;;;;;;;4.10;2.05;;;28.50;75.80;;;;;;5094560;28;20028;-78
2022/05/10 13:15:54;;;;;;;4.65;2.00;;;28.60;74.50;;;;;;5092269;28;20078;-75
2022/05/10 13:18:24;;;;;;;5.22;1.77;;;28.60;74.60;;;;;;5091468;28;20070;-76
2022/05/10 13:20:52;;;;;;;4.60;1.45;;;28.60;69.50;;;;;;5095918;28;20019;-77
2022/05/10 13:23:19;;;;;;;4.00;1.80;;;28.70;66.60;;;;;;5094345;28;20035;-75
2022/05/10 13:25:47;;;;;;;3.78;1.70;;;28.80;74.40;;;;;;5097076;28;20016;-78
2022/05/10 13:28:22;;;;;;;5.55;1.63;;;28.70;70.60;;;;;;5096998;28;20503;-79
2022/05/10 13:30:56;;;;;;;3.63;1.23;;;28.80;71.50;;;;;;5096987;28;20020;-79
2022/05/10 13:33:29;;;;;;;5.20;1.55;;;29.10;69.30;;;;;;5095472;28;20081;-76
2022/05/10 13:36:05;;;;;;;4.05;2.20;;;29.40;69.30;;;;;;5100906;28;20027;-75